sensor_id;sensor_type;location;lat;lon;timestamp;P1;durP1;ratioP1;P2;durP2;ratioP2
52158;SDS011;38145;53.182;6.284;2022-08-25T00:01:48;48.22;;;43.75;;
52158;SDS011;38145;53.182;6.284;2022-08-25T00:04:17;49.58;;;45.03;;
52158;SDS011;38145;53.182;6.284;2022-08-25T00:06:45;45.83;;;41.90;;
52158;SDS011;38145;53.182;6.284;2022-08-25T00:09:18;49.47;;;45.08;;
52158;SDS011;38145;53.182;6.284;2022-08-25T00:11:47;51.28;;;46.58;;
52158;SDS011;38145;53.182;6.284;2022-08-25T00:14:17;51.55;;;46.50;;
52158;SDS011;38145;53.182;6.284;2022-08-25T00:16:47;50.40;;;45.90;;
52158;SDS011;38145;53.182;6.284;2022-08-25T00:19:14;51.40;;;46.40;;
52158;SDS011;38145;53.182;6.284;2022-08-25T00:21:44;53.70;;;48.85;;
52158;SDS011;38145;53.182;6.284;2022-08-25T00:24:12;52.67;;;47.42;;
52158;SDS011;38145;53.182;6.284;2022-08-25T00:26:42;54.80;;;49.53;;
52158;SDS011;38145;53.182;6.284;2022-08-25T00:29:14;51.70;;;46.95;;
52158;SDS011;38145;53.182;6.284;2022-08-25T00:31:40;53.63;;;48.78;;
52158;SDS011;38145;53.182;6.284;2022-08-25T00:34:09;52.00;;;47.03;;
52158;SDS011;38145;53.182;6.284;2022-08-25T00:36:40;53.03;;;48.00;;
52158;SDS011;38145;53.182;6.284;2022-08-25T00:39:09;52.78;;;47.35;;
52158;SDS011;38145;53.182;6.284;2022-08-25T00:41:39;53.67;;;48.65;;
52158;SDS011;38145;53.182;6.284;2022-08-25T00:44:08;52.53;;;47.55;;
52158;SDS011;38145;53.182;6.284;2022-08-25T00:46:42;51.83;;;46.92;;
52158;SDS011;38145;53.182;6.284;2022-08-25T00:49:18;52.90;;;47.55;;
52158;SDS011;38145;53.182;6.284;2022-08-25T00:51:50;51.63;;;47.03;;
52158;SDS011;38145;53.182;6.284;2022-08-25T00:54:24;48.78;;;44.33;;
52158;SDS011;38145;53.182;6.284;2022-08-25T00:56:57;48.70;;;43.95;;
52158;SDS011;38145;53.182;6.284;2022-08-25T00:59:30;48.92;;;44.25;;
52158;SDS011;38145;53.182;6.284;2022-08-25T01:02:00;48.78;;;43.92;;
52158;SDS011;38145;53.182;6.284;2022-08-25T01:04:28;43.30;;;39.47;;
52158;SDS011;38145;53.182;6.284;2022-08-25T01:06:55;43.00;;;38.92;;
52158;SDS011;38145;53.182;6.284;2022-08-25T01:09:22;48.17;;;43.60;;
52158;SDS011;38145;53.182;6.284;2022-08-25T01:11:50;48.70;;;44.15;;
52158;SDS011;38145;53.182;6.284;2022-08-25T01:14:18;46.17;;;41.97;;
52158;SDS011;38145;53.182;6.284;2022-08-25T01:16:49;46.88;;;42.63;;
52158;SDS011;38145;53.182;6.284;2022-08-25T01:19:18;43.70;;;39.60;;
52158;SDS011;38145;53.182;6.284;2022-08-25T01:21:48;42.88;;;38.45;;
52158;SDS011;38145;53.182;6.284;2022-08-25T01:27:07;40.38;;;36.42;;
52158;SDS011;38145;53.182;6.284;2022-08-25T01:29:34;38.67;;;35.13;;
52158;SDS011;38145;53.182;6.284;2022-08-25T01:32:04;36.72;;;33.25;;
52158;SDS011;38145;53.182;6.284;2022-08-25T01:34:34;35.25;;;32.22;;
52158;SDS011;38145;53.182;6.284;2022-08-25T01:37:02;32.58;;;29.52;;
52158;SDS011;38145;53.182;6.284;2022-08-25T01:39:32;31.55;;;28.52;;
52158;SDS011;38145;53.182;6.284;2022-08-25T01:44:36;28.92;;;26.52;;
52158;SDS011;38145;53.182;6.284;2022-08-25T01:47:05;28.17;;;25.27;;
52158;SDS011;38145;53.182;6.284;2022-08-25T01:49:34;27.83;;;25.05;;
52158;SDS011;38145;53.182;6.284;2022-08-25T01:52:19;22.42;;;20.38;;
52158;SDS011;38145;53.182;6.284;2022-08-25T01:54:48;20.53;;;18.50;;
52158;SDS011;38145;53.182;6.284;2022-08-25T01:57:17;20.27;;;18.23;;
52158;SDS011;38145;53.182;6.284;2022-08-25T01:59:47;19.80;;;17.85;;
52158;SDS011;38145;53.182;6.284;2022-08-25T02:02:16;19.52;;;17.50;;
52158;SDS011;38145;53.182;6.284;2022-08-25T02:04:42;19.75;;;16.23;;
52158;SDS011;38145;53.182;6.284;2022-08-25T02:07:13;16.00;;;14.30;;
52158;SDS011;38145;53.182;6.284;2022-08-25T02:09:41;14.68;;;13.20;;
52158;SDS011;38145;53.182;6.284;2022-08-25T02:12:08;12.85;;;11.48;;
52158;SDS011;38145;53.182;6.284;2022-08-25T02:14:37;14.02;;;12.63;;
52158;SDS011;38145;53.182;6.284;2022-08-25T02:17:04;15.70;;;12.07;;
52158;SDS011;38145;53.182;6.284;2022-08-25T02:19:30;12.60;;;11.27;;
52158;SDS011;38145;53.182;6.284;2022-08-25T02:21:57;11.13;;;10.02;;
52158;SDS011;38145;53.182;6.284;2022-08-25T02:24:26;15.40;;;10.75;;
52158;SDS011;38145;53.182;6.284;2022-08-25T02:26:58;11.63;;;9.35;;
52158;SDS011;38145;53.182;6.284;2022-08-25T02:29:25;11.52;;;10.43;;
52158;SDS011;38145;53.182;6.284;2022-08-25T02:31:53;10.25;;;9.23;;
52158;SDS011;38145;53.182;6.284;2022-08-25T02:34:19;13.20;;;8.93;;
52158;SDS011;38145;53.182;6.284;2022-08-25T02:36:46;9.18;;;8.27;;
52158;SDS011;38145;53.182;6.284;2022-08-25T02:39:14;12.18;;;8.20;;
52158;SDS011;38145;53.182;6.284;2022-08-25T02:41:41;9.02;;;8.00;;
52158;SDS011;38145;53.182;6.284;2022-08-25T02:44:07;7.93;;;7.13;;
52158;SDS011;38145;53.182;6.284;2022-08-25T02:49:02;12.60;;;7.63;;
52158;SDS011;38145;53.182;6.284;2022-08-25T02:53:59;8.68;;;7.45;;
52158;SDS011;38145;53.182;6.284;2022-08-25T02:56:28;10.32;;;7.28;;
52158;SDS011;38145;53.182;6.284;2022-08-25T02:58:55;9.30;;;7.82;;
52158;SDS011;38145;53.182;6.284;2022-08-25T03:01:21;9.43;;;7.55;;
52158;SDS011;38145;53.182;6.284;2022-08-25T03:03:48;10.10;;;6.93;;
52158;SDS011;38145;53.182;6.284;2022-08-25T03:06:18;9.55;;;7.68;;
52158;SDS011;38145;53.182;6.284;2022-08-25T03:08:49;10.15;;;7.90;;
52158;SDS011;38145;53.182;6.284;2022-08-25T03:11:16;9.32;;;7.43;;
52158;SDS011;38145;53.182;6.284;2022-08-25T03:13:43;10.53;;;7.53;;
52158;SDS011;38145;53.182;6.284;2022-08-25T03:16:11;9.50;;;6.70;;
52158;SDS011;38145;53.182;6.284;2022-08-25T03:18:40;11.05;;;7.82;;
52158;SDS011;38145;53.182;6.284;2022-08-25T03:21:07;11.32;;;8.13;;
52158;SDS011;38145;53.182;6.284;2022-08-25T03:23:35;8.77;;;6.93;;
52158;SDS011;38145;53.182;6.284;2022-08-25T03:26:06;8.60;;;7.15;;
52158;SDS011;38145;53.182;6.284;2022-08-25T03:28:56;9.32;;;7.30;;
52158;SDS011;38145;53.182;6.284;2022-08-25T03:31:23;8.65;;;6.93;;
52158;SDS011;38145;53.182;6.284;2022-08-25T03:33:52;9.90;;;7.70;;
52158;SDS011;38145;53.182;6.284;2022-08-25T03:36:21;9.93;;;7.57;;
52158;SDS011;38145;53.182;6.284;2022-08-25T03:38:48;10.57;;;7.13;;
52158;SDS011;38145;53.182;6.284;2022-08-25T03:41:19;8.10;;;6.82;;
52158;SDS011;38145;53.182;6.284;2022-08-25T03:43:47;9.80;;;6.43;;
52158;SDS011;38145;53.182;6.284;2022-08-25T03:46:15;8.77;;;6.78;;
52158;SDS011;38145;53.182;6.284;2022-08-25T03:48:43;8.82;;;7.40;;
52158;SDS011;38145;53.182;6.284;2022-08-25T03:51:11;10.98;;;6.85;;
52158;SDS011;38145;53.182;6.284;2022-08-25T03:53:38;8.60;;;7.20;;
52158;SDS011;38145;53.182;6.284;2022-08-25T03:56:04;10.05;;;7.30;;
52158;SDS011;38145;53.182;6.284;2022-08-25T03:58:30;9.52;;;8.43;;
52158;SDS011;38145;53.182;6.284;2022-08-25T04:00:57;8.23;;;7.38;;
52158;SDS011;38145;53.182;6.284;2022-08-25T04:03:27;9.43;;;7.82;;
52158;SDS011;38145;53.182;6.284;2022-08-25T04:05:54;8.73;;;7.53;;
52158;SDS011;38145;53.182;6.284;2022-08-25T04:08:25;9.63;;;7.15;;
52158;SDS011;38145;53.182;6.284;2022-08-25T04:10:51;8.80;;;6.50;;
52158;SDS011;38145;53.182;6.284;2022-08-25T04:13:19;7.38;;;6.65;;
52158;SDS011;38145;53.182;6.284;2022-08-25T04:15:45;8.75;;;7.00;;
52158;SDS011;38145;53.182;6.284;2022-08-25T04:18:13;8.10;;;7.32;;
52158;SDS011;38145;53.182;6.284;2022-08-25T04:20:41;8.80;;;6.20;;
52158;SDS011;38145;53.182;6.284;2022-08-25T04:23:08;9.85;;;6.32;;
52158;SDS011;38145;53.182;6.284;2022-08-25T04:28:08;8.02;;;6.57;;
52158;SDS011;38145;53.182;6.284;2022-08-25T04:30:40;9.18;;;6.53;;
52158;SDS011;38145;53.182;6.284;2022-08-25T04:33:08;7.15;;;6.45;;
52158;SDS011;38145;53.182;6.284;2022-08-25T04:35:34;8.93;;;6.25;;
52158;SDS011;38145;53.182;6.284;2022-08-25T04:38:01;14.80;;;6.75;;
52158;SDS011;38145;53.182;6.284;2022-08-25T04:40:27;8.68;;;5.75;;
52158;SDS011;38145;53.182;6.284;2022-08-25T04:42:53;9.18;;;6.10;;
52158;SDS011;38145;53.182;6.284;2022-08-25T04:45:22;13.20;;;6.72;;
52158;SDS011;38145;53.182;6.284;2022-08-25T04:47:49;10.45;;;6.00;;
52158;SDS011;38145;53.182;6.284;2022-08-25T04:50:15;10.23;;;6.30;;
52158;SDS011;38145;53.182;6.284;2022-08-25T04:52:41;9.48;;;6.28;;
52158;SDS011;38145;53.182;6.284;2022-08-25T04:55:08;10.32;;;6.18;;
52158;SDS011;38145;53.182;6.284;2022-08-25T04:57:37;10.10;;;6.75;;
52158;SDS011;38145;53.182;6.284;2022-08-25T05:00:03;7.90;;;5.85;;
52158;SDS011;38145;53.182;6.284;2022-08-25T05:04:57;9.48;;;6.82;;
52158;SDS011;38145;53.182;6.284;2022-08-25T05:07:23;9.23;;;6.55;;
52158;SDS011;38145;53.182;6.284;2022-08-25T05:09:50;9.93;;;7.90;;
52158;SDS011;38145;53.182;6.284;2022-08-25T05:12:16;8.33;;;5.90;;
52158;SDS011;38145;53.182;6.284;2022-08-25T05:14:46;7.32;;;6.10;;
52158;SDS011;38145;53.182;6.284;2022-08-25T05:17:12;9.77;;;7.28;;
52158;SDS011;38145;53.182;6.284;2022-08-25T05:19:46;9.45;;;5.90;;
52158;SDS011;38145;53.182;6.284;2022-08-25T05:22:14;8.70;;;6.22;;
52158;SDS011;38145;53.182;6.284;2022-08-25T05:24:40;8.55;;;5.82;;
52158;SDS011;38145;53.182;6.284;2022-08-25T05:27:15;6.60;;;5.82;;
52158;SDS011;38145;53.182;6.284;2022-08-25T05:29:41;6.43;;;5.57;;
52158;SDS011;38145;53.182;6.284;2022-08-25T05:32:07;6.90;;;5.60;;
52158;SDS011;38145;53.182;6.284;2022-08-25T05:34:35;8.73;;;5.73;;
52158;SDS011;38145;53.182;6.284;2022-08-25T05:37:03;8.15;;;5.35;;
52158;SDS011;38145;53.182;6.284;2022-08-25T05:44:28;8.30;;;5.03;;
52158;SDS011;38145;53.182;6.284;2022-08-25T05:46:55;8.37;;;5.30;;
52158;SDS011;38145;53.182;6.284;2022-08-25T05:49:21;8.77;;;5.85;;
52158;SDS011;38145;53.182;6.284;2022-08-25T05:51:47;9.00;;;4.90;;
52158;SDS011;38145;53.182;6.284;2022-08-25T05:54:14;8.73;;;5.22;;
52158;SDS011;38145;53.182;6.284;2022-08-25T05:56:40;7.22;;;5.07;;
52158;SDS011;38145;53.182;6.284;2022-08-25T05:59:07;6.25;;;5.05;;
52158;SDS011;38145;53.182;6.284;2022-08-25T06:01:33;6.78;;;5.22;;
52158;SDS011;38145;53.182;6.284;2022-08-25T06:04:18;7.28;;;4.65;;
52158;SDS011;38145;53.182;6.284;2022-08-25T06:06:47;11.13;;;5.35;;
52158;SDS011;38145;53.182;6.284;2022-08-25T06:09:17;7.97;;;4.70;;
52158;SDS011;38145;53.182;6.284;2022-08-25T06:11:47;9.77;;;4.65;;
52158;SDS011;38145;53.182;6.284;2022-08-25T06:14:14;6.80;;;4.32;;
52158;SDS011;38145;53.182;6.284;2022-08-25T06:16:40;6.57;;;4.85;;
52158;SDS011;38145;53.182;6.284;2022-08-25T06:19:08;12.07;;;4.72;;
52158;SDS011;38145;53.182;6.284;2022-08-25T06:21:35;10.57;;;4.95;;
52158;SDS011;38145;53.182;6.284;2022-08-25T06:24:06;14.55;;;5.05;;
52158;SDS011;38145;53.182;6.284;2022-08-25T06:26:35;6.53;;;4.82;;
52158;SDS011;38145;53.182;6.284;2022-08-25T06:29:03;6.88;;;4.60;;
52158;SDS011;38145;53.182;6.284;2022-08-25T06:31:29;10.93;;;5.17;;
52158;SDS011;38145;53.182;6.284;2022-08-25T06:33:56;11.00;;;4.68;;
52158;SDS011;38145;53.182;6.284;2022-08-25T06:36:24;10.35;;;4.38;;
52158;SDS011;38145;53.182;6.284;2022-08-25T06:38:56;7.30;;;4.22;;
52158;SDS011;38145;53.182;6.284;2022-08-25T06:41:23;8.02;;;4.45;;
52158;SDS011;38145;53.182;6.284;2022-08-25T06:43:49;8.63;;;4.55;;
52158;SDS011;38145;53.182;6.284;2022-08-25T06:46:17;7.05;;;4.50;;
52158;SDS011;38145;53.182;6.284;2022-08-25T06:48:47;7.82;;;4.50;;
52158;SDS011;38145;53.182;6.284;2022-08-25T06:51:16;8.50;;;4.97;;
52158;SDS011;38145;53.182;6.284;2022-08-25T06:53:44;6.65;;;4.07;;
52158;SDS011;38145;53.182;6.284;2022-08-25T06:56:12;7.10;;;4.00;;
52158;SDS011;38145;53.182;6.284;2022-08-25T06:58:39;7.35;;;4.65;;
52158;SDS011;38145;53.182;6.284;2022-08-25T07:03:36;6.38;;;4.43;;
52158;SDS011;38145;53.182;6.284;2022-08-25T07:06:04;5.57;;;4.30;;
52158;SDS011;38145;53.182;6.284;2022-08-25T07:08:32;6.68;;;4.60;;
52158;SDS011;38145;53.182;6.284;2022-08-25T07:11:05;7.85;;;4.63;;
52158;SDS011;38145;53.182;6.284;2022-08-25T07:13:32;7.47;;;4.32;;
52158;SDS011;38145;53.182;6.284;2022-08-25T07:15:59;12.65;;;4.28;;
52158;SDS011;38145;53.182;6.284;2022-08-25T07:18:25;6.28;;;4.55;;
52158;SDS011;38145;53.182;6.284;2022-08-25T07:20:53;5.30;;;4.18;;
52158;SDS011;38145;53.182;6.284;2022-08-25T07:23:22;8.05;;;4.53;;
52158;SDS011;38145;53.182;6.284;2022-08-25T07:28:16;7.75;;;4.07;;
52158;SDS011;38145;53.182;6.284;2022-08-25T07:30:44;9.95;;;4.60;;
52158;SDS011;38145;53.182;6.284;2022-08-25T07:33:10;8.65;;;4.38;;
52158;SDS011;38145;53.182;6.284;2022-08-25T07:35:37;8.88;;;4.65;;
52158;SDS011;38145;53.182;6.284;2022-08-25T07:38:04;5.65;;;4.15;;
52158;SDS011;38145;53.182;6.284;2022-08-25T07:40:33;6.80;;;3.92;;
52158;SDS011;38145;53.182;6.284;2022-08-25T07:43:04;7.20;;;4.03;;
52158;SDS011;38145;53.182;6.284;2022-08-25T07:45:34;5.47;;;4.43;;
52158;SDS011;38145;53.182;6.284;2022-08-25T07:48:04;4.97;;;3.78;;
52158;SDS011;38145;53.182;6.284;2022-08-25T07:50:36;5.97;;;4.45;;
52158;SDS011;38145;53.182;6.284;2022-08-25T07:53:04;8.48;;;4.75;;
52158;SDS011;38145;53.182;6.284;2022-08-25T07:55:30;6.45;;;4.50;;
52158;SDS011;38145;53.182;6.284;2022-08-25T07:58:04;6.40;;;4.75;;
52158;SDS011;38145;53.182;6.284;2022-08-25T08:00:32;8.07;;;4.68;;
52158;SDS011;38145;53.182;6.284;2022-08-25T08:03:01;7.00;;;4.50;;
52158;SDS011;38145;53.182;6.284;2022-08-25T08:05:29;8.43;;;4.40;;
52158;SDS011;38145;53.182;6.284;2022-08-25T08:07:57;8.88;;;4.38;;
52158;SDS011;38145;53.182;6.284;2022-08-25T08:10:24;5.03;;;4.53;;
52158;SDS011;38145;53.182;6.284;2022-08-25T08:12:51;5.70;;;4.10;;
52158;SDS011;38145;53.182;6.284;2022-08-25T08:15:19;5.93;;;4.15;;
52158;SDS011;38145;53.182;6.284;2022-08-25T08:17:46;6.60;;;4.38;;
52158;SDS011;38145;53.182;6.284;2022-08-25T08:20:12;6.43;;;4.00;;
52158;SDS011;38145;53.182;6.284;2022-08-25T08:22:39;5.57;;;4.32;;
52158;SDS011;38145;53.182;6.284;2022-08-25T08:25:08;6.22;;;4.07;;
52158;SDS011;38145;53.182;6.284;2022-08-25T08:27:35;8.90;;;4.28;;
52158;SDS011;38145;53.182;6.284;2022-08-25T08:30:02;9.95;;;4.43;;
52158;SDS011;38145;53.182;6.284;2022-08-25T08:32:33;7.57;;;4.18;;
52158;SDS011;38145;53.182;6.284;2022-08-25T08:34:59;4.22;;;3.70;;
52158;SDS011;38145;53.182;6.284;2022-08-25T08:37:26;9.15;;;4.03;;
52158;SDS011;38145;53.182;6.284;2022-08-25T08:39:52;9.45;;;3.67;;
52158;SDS011;38145;53.182;6.284;2022-08-25T08:42:32;8.32;;;3.75;;
52158;SDS011;38145;53.182;6.284;2022-08-25T08:45:26;7.18;;;3.75;;
52158;SDS011;38145;53.182;6.284;2022-08-25T08:48:00;5.00;;;3.25;;
52158;SDS011;38145;53.182;6.284;2022-08-25T08:50:55;7.25;;;3.88;;
52158;SDS011;38145;53.182;6.284;2022-08-25T08:56:25;7.13;;;3.20;;
52158;SDS011;38145;53.182;6.284;2022-08-25T08:58:57;6.65;;;3.35;;
52158;SDS011;38145;53.182;6.284;2022-08-25T09:01:29;4.53;;;2.88;;
52158;SDS011;38145;53.182;6.284;2022-08-25T09:04:02;6.75;;;2.90;;
52158;SDS011;38145;53.182;6.284;2022-08-25T09:06:40;5.85;;;3.25;;
52158;SDS011;38145;53.182;6.284;2022-08-25T09:09:10;4.00;;;2.92;;
52158;SDS011;38145;53.182;6.284;2022-08-25T09:14:26;6.50;;;2.58;;
52158;SDS011;38145;53.182;6.284;2022-08-25T09:17:10;4.65;;;2.30;;
52158;SDS011;38145;53.182;6.284;2022-08-25T09:23:00;4.50;;;2.95;;
52158;SDS011;38145;53.182;6.284;2022-08-25T09:25:59;5.07;;;2.72;;
52158;SDS011;38145;53.182;6.284;2022-08-25T09:28:48;3.85;;;2.38;;
52158;SDS011;38145;53.182;6.284;2022-08-25T09:31:26;5.97;;;2.72;;
52158;SDS011;38145;53.182;6.284;2022-08-25T09:33:59;3.83;;;2.38;;
52158;SDS011;38145;53.182;6.284;2022-08-25T09:36:27;5.97;;;2.80;;
52158;SDS011;38145;53.182;6.284;2022-08-25T09:41:49;7.55;;;2.80;;
52158;SDS011;38145;53.182;6.284;2022-08-25T09:44:25;3.72;;;2.40;;
52158;SDS011;38145;53.182;6.284;2022-08-25T09:46:54;5.25;;;2.33;;
52158;SDS011;38145;53.182;6.284;2022-08-25T09:49:32;6.25;;;2.83;;
52158;SDS011;38145;53.182;6.284;2022-08-25T09:52:24;5.50;;;2.35;;
52158;SDS011;38145;53.182;6.284;2022-08-25T09:55:30;4.65;;;2.47;;
52158;SDS011;38145;53.182;6.284;2022-08-25T09:58:22;4.22;;;3.00;;
52158;SDS011;38145;53.182;6.284;2022-08-25T10:01:00;5.85;;;2.97;;
52158;SDS011;38145;53.182;6.284;2022-08-25T10:03:29;6.90;;;2.38;;
52158;SDS011;38145;53.182;6.284;2022-08-25T10:05:59;4.15;;;2.58;;
52158;SDS011;38145;53.182;6.284;2022-08-25T10:08:36;3.55;;;2.53;;
52158;SDS011;38145;53.182;6.284;2022-08-25T10:11:11;3.80;;;2.25;;
52158;SDS011;38145;53.182;6.284;2022-08-25T10:14:00;4.95;;;2.83;;
52158;SDS011;38145;53.182;6.284;2022-08-25T10:16:31;5.68;;;2.60;;
52158;SDS011;38145;53.182;6.284;2022-08-25T10:19:02;4.15;;;2.50;;
52158;SDS011;38145;53.182;6.284;2022-08-25T10:21:36;3.83;;;2.25;;
52158;SDS011;38145;53.182;6.284;2022-08-25T10:24:04;4.88;;;2.00;;
52158;SDS011;38145;53.182;6.284;2022-08-25T10:26:36;5.38;;;2.40;;
52158;SDS011;38145;53.182;6.284;2022-08-25T10:32:11;6.45;;;2.50;;
52158;SDS011;38145;53.182;6.284;2022-08-25T10:34:52;4.55;;;2.28;;
52158;SDS011;38145;53.182;6.284;2022-08-25T10:40:20;4.43;;;2.17;;
52158;SDS011;38145;53.182;6.284;2022-08-25T10:43:05;4.35;;;2.17;;
52158;SDS011;38145;53.182;6.284;2022-08-25T10:45:50;5.57;;;2.00;;
52158;SDS011;38145;53.182;6.284;2022-08-25T10:48:27;4.72;;;2.13;;
52158;SDS011;38145;53.182;6.284;2022-08-25T10:54:05;5.53;;;2.28;;
52158;SDS011;38145;53.182;6.284;2022-08-25T10:56:49;3.78;;;2.20;;
52158;SDS011;38145;53.182;6.284;2022-08-25T10:59:22;4.88;;;2.13;;
52158;SDS011;38145;53.182;6.284;2022-08-25T11:04:43;4.90;;;2.10;;
52158;SDS011;38145;53.182;6.284;2022-08-25T11:07:21;3.35;;;2.08;;
52158;SDS011;38145;53.182;6.284;2022-08-25T11:09:54;6.47;;;2.70;;
52158;SDS011;38145;53.182;6.284;2022-08-25T11:15:17;2.65;;;2.15;;
52158;SDS011;38145;53.182;6.284;2022-08-25T11:17:52;5.40;;;2.70;;
52158;SDS011;38145;53.182;6.284;2022-08-25T11:20:29;4.40;;;2.10;;
52158;SDS011;38145;53.182;6.284;2022-08-25T11:23:08;2.78;;;1.90;;
52158;SDS011;38145;53.182;6.284;2022-08-25T11:25:41;6.30;;;1.88;;
52158;SDS011;38145;53.182;6.284;2022-08-25T11:30:41;5.47;;;2.25;;
52158;SDS011;38145;53.182;6.284;2022-08-25T11:33:15;4.40;;;1.80;;
52158;SDS011;38145;53.182;6.284;2022-08-25T11:35:45;4.15;;;2.10;;
52158;SDS011;38145;53.182;6.284;2022-08-25T11:41:21;3.97;;;2.30;;
52158;SDS011;38145;53.182;6.284;2022-08-25T11:44:06;4.60;;;2.60;;
52158;SDS011;38145;53.182;6.284;2022-08-25T11:46:47;5.28;;;2.42;;
52158;SDS011;38145;53.182;6.284;2022-08-25T11:52:41;5.68;;;2.35;;
52158;SDS011;38145;53.182;6.284;2022-08-25T11:55:12;4.95;;;2.25;;
52158;SDS011;38145;53.182;6.284;2022-08-25T11:57:43;3.90;;;1.95;;
52158;SDS011;38145;53.182;6.284;2022-08-25T12:00:14;9.68;;;2.55;;
52158;SDS011;38145;53.182;6.284;2022-08-25T12:02:59;6.45;;;2.28;;
52158;SDS011;38145;53.182;6.284;2022-08-25T12:08:52;4.88;;;1.95;;
52158;SDS011;38145;53.182;6.284;2022-08-25T12:11:53;4.72;;;2.35;;
52158;SDS011;38145;53.182;6.284;2022-08-25T12:17:05;5.03;;;2.35;;
52158;SDS011;38145;53.182;6.284;2022-08-25T12:27:18;3.25;;;2.10;;
52158;SDS011;38145;53.182;6.284;2022-08-25T12:30:00;4.65;;;2.00;;
52158;SDS011;38145;53.182;6.284;2022-08-25T12:35:37;5.60;;;2.45;;
52158;SDS011;38145;53.182;6.284;2022-08-25T12:38:27;9.77;;;2.65;;
52158;SDS011;38145;53.182;6.284;2022-08-25T12:41:02;7.15;;;1.90;;
52158;SDS011;38145;53.182;6.284;2022-08-25T12:43:37;5.85;;;2.28;;
52158;SDS011;38145;53.182;6.284;2022-08-25T12:51:55;5.30;;;2.60;;
52158;SDS011;38145;53.182;6.284;2022-08-25T12:57:04;3.45;;;2.17;;
52158;SDS011;38145;53.182;6.284;2022-08-25T12:59:49;3.33;;;2.05;;
52158;SDS011;38145;53.182;6.284;2022-08-25T13:02:36;2.65;;;1.95;;
52158;SDS011;38145;53.182;6.284;2022-08-25T13:05:28;3.67;;;2.55;;
52158;SDS011;38145;53.182;6.284;2022-08-25T13:11:06;5.78;;;2.50;;
52158;SDS011;38145;53.182;6.284;2022-08-25T13:16:21;5.57;;;2.70;;
52158;SDS011;38145;53.182;6.284;2022-08-25T13:18:51;6.43;;;2.40;;
52158;SDS011;38145;53.182;6.284;2022-08-25T13:23:49;3.65;;;2.17;;
52158;SDS011;38145;53.182;6.284;2022-08-25T13:26:24;4.35;;;2.30;;
52158;SDS011;38145;53.182;6.284;2022-08-25T13:28:58;3.58;;;2.30;;
52158;SDS011;38145;53.182;6.284;2022-08-25T13:31:28;3.88;;;2.42;;
52158;SDS011;38145;53.182;6.284;2022-08-25T13:33:56;4.35;;;2.25;;
52158;SDS011;38145;53.182;6.284;2022-08-25T13:36:27;5.18;;;2.35;;
52158;SDS011;38145;53.182;6.284;2022-08-25T13:39:18;2.22;;;2.00;;
52158;SDS011;38145;53.182;6.284;2022-08-25T13:41:52;3.95;;;2.33;;
52158;SDS011;38145;53.182;6.284;2022-08-25T13:44:23;3.20;;;2.15;;
52158;SDS011;38145;53.182;6.284;2022-08-25T13:47:04;6.68;;;2.40;;
52158;SDS011;38145;53.182;6.284;2022-08-25T13:49:36;2.80;;;2.00;;
52158;SDS011;38145;53.182;6.284;2022-08-25T13:52:04;4.50;;;2.10;;
52158;SDS011;38145;53.182;6.284;2022-08-25T13:54:36;2.47;;;1.98;;
52158;SDS011;38145;53.182;6.284;2022-08-25T13:57:13;4.47;;;2.22;;
52158;SDS011;38145;53.182;6.284;2022-08-25T13:59:47;3.97;;;2.17;;
52158;SDS011;38145;53.182;6.284;2022-08-25T14:02:37;3.72;;;2.20;;
52158;SDS011;38145;53.182;6.284;2022-08-25T14:05:05;3.33;;;2.33;;
52158;SDS011;38145;53.182;6.284;2022-08-25T14:12:32;3.13;;;2.38;;
52158;SDS011;38145;53.182;6.284;2022-08-25T14:15:02;6.45;;;2.38;;
52158;SDS011;38145;53.182;6.284;2022-08-25T14:17:32;3.17;;;1.83;;
52158;SDS011;38145;53.182;6.284;2022-08-25T14:20:00;4.53;;;2.40;;
52158;SDS011;38145;53.182;6.284;2022-08-25T14:22:27;5.73;;;2.20;;
52158;SDS011;38145;53.182;6.284;2022-08-25T14:24:54;2.45;;;1.88;;
52158;SDS011;38145;53.182;6.284;2022-08-25T14:27:21;5.95;;;2.53;;
52158;SDS011;38145;53.182;6.284;2022-08-25T14:29:48;4.85;;;2.38;;
52158;SDS011;38145;53.182;6.284;2022-08-25T14:32:17;3.10;;;2.30;;
52158;SDS011;38145;53.182;6.284;2022-08-25T14:34:43;5.20;;;2.45;;
52158;SDS011;38145;53.182;6.284;2022-08-25T14:37:12;4.10;;;2.38;;
52158;SDS011;38145;53.182;6.284;2022-08-25T14:39:40;3.25;;;2.13;;
52158;SDS011;38145;53.182;6.284;2022-08-25T14:42:07;7.13;;;2.30;;
52158;SDS011;38145;53.182;6.284;2022-08-25T14:44:34;5.18;;;2.03;;
52158;SDS011;38145;53.182;6.284;2022-08-25T14:47:02;9.43;;;3.55;;
52158;SDS011;38145;53.182;6.284;2022-08-25T14:49:32;4.32;;;2.50;;
52158;SDS011;38145;53.182;6.284;2022-08-25T14:52:04;4.45;;;2.08;;
52158;SDS011;38145;53.182;6.284;2022-08-25T14:54:35;2.45;;;2.20;;
52158;SDS011;38145;53.182;6.284;2022-08-25T14:57:02;5.80;;;1.85;;
52158;SDS011;38145;53.182;6.284;2022-08-25T14:59:31;2.55;;;2.20;;
52158;SDS011;38145;53.182;6.284;2022-08-25T15:01:59;8.13;;;2.15;;
52158;SDS011;38145;53.182;6.284;2022-08-25T15:04:26;2.55;;;1.92;;
52158;SDS011;38145;53.182;6.284;2022-08-25T15:06:56;4.50;;;2.05;;
52158;SDS011;38145;53.182;6.284;2022-08-25T15:09:24;3.50;;;2.22;;
52158;SDS011;38145;53.182;6.284;2022-08-25T15:11:51;5.60;;;2.30;;
52158;SDS011;38145;53.182;6.284;2022-08-25T15:14:20;5.40;;;2.30;;
52158;SDS011;38145;53.182;6.284;2022-08-25T15:16:49;4.28;;;2.05;;
52158;SDS011;38145;53.182;6.284;2022-08-25T15:19:19;4.22;;;1.70;;
52158;SDS011;38145;53.182;6.284;2022-08-25T15:21:48;3.58;;;2.03;;
52158;SDS011;38145;53.182;6.284;2022-08-25T15:24:16;3.17;;;1.88;;
52158;SDS011;38145;53.182;6.284;2022-08-25T15:26:45;3.38;;;2.00;;
52158;SDS011;38145;53.182;6.284;2022-08-25T15:29:16;3.90;;;2.33;;
52158;SDS011;38145;53.182;6.284;2022-08-25T15:34:10;2.30;;;2.10;;
52158;SDS011;38145;53.182;6.284;2022-08-25T15:36:39;3.17;;;2.08;;
52158;SDS011;38145;53.182;6.284;2022-08-25T15:39:06;2.75;;;1.75;;
52158;SDS011;38145;53.182;6.284;2022-08-25T15:41:33;5.15;;;2.20;;
52158;SDS011;38145;53.182;6.284;2022-08-25T15:46:28;4.22;;;1.98;;
52158;SDS011;38145;53.182;6.284;2022-08-25T15:48:55;5.65;;;2.22;;
52158;SDS011;38145;53.182;6.284;2022-08-25T15:51:22;2.90;;;2.33;;
52158;SDS011;38145;53.182;6.284;2022-08-25T15:53:48;5.15;;;2.13;;
52158;SDS011;38145;53.182;6.284;2022-08-25T15:56:15;7.20;;;2.40;;
52158;SDS011;38145;53.182;6.284;2022-08-25T15:58:44;4.10;;;2.45;;
52158;SDS011;38145;53.182;6.284;2022-08-25T16:01:15;3.05;;;1.98;;
52158;SDS011;38145;53.182;6.284;2022-08-25T16:03:47;3.00;;;1.90;;
52158;SDS011;38145;53.182;6.284;2022-08-25T16:06:14;4.20;;;2.23;;
52158;SDS011;38145;53.182;6.284;2022-08-25T16:08:41;3.85;;;2.38;;
52158;SDS011;38145;53.182;6.284;2022-08-25T16:11:15;5.30;;;2.60;;
52158;SDS011;38145;53.182;6.284;2022-08-25T16:13:45;7.55;;;2.60;;
52158;SDS011;38145;53.182;6.284;2022-08-25T16:16:13;6.45;;;2.80;;
52158;SDS011;38145;53.182;6.284;2022-08-25T16:18:42;2.70;;;2.30;;
52158;SDS011;38145;53.182;6.284;2022-08-25T16:21:09;4.18;;;2.40;;
52158;SDS011;38145;53.182;6.284;2022-08-25T16:23:37;3.90;;;2.53;;
52158;SDS011;38145;53.182;6.284;2022-08-25T16:26:07;7.07;;;3.30;;
52158;SDS011;38145;53.182;6.284;2022-08-25T16:28:36;3.47;;;3.10;;
52158;SDS011;38145;53.182;6.284;2022-08-25T16:31:11;3.88;;;2.30;;
52158;SDS011;38145;53.182;6.284;2022-08-25T16:33:39;3.70;;;2.47;;
52158;SDS011;38145;53.182;6.284;2022-08-25T16:36:08;3.22;;;2.60;;
52158;SDS011;38145;53.182;6.284;2022-08-25T16:38:37;2.60;;;2.05;;
52158;SDS011;38145;53.182;6.284;2022-08-25T16:41:06;4.53;;;2.08;;
52158;SDS011;38145;53.182;6.284;2022-08-25T16:43:33;4.22;;;2.10;;
52158;SDS011;38145;53.182;6.284;2022-08-25T16:46:03;3.45;;;2.15;;
52158;SDS011;38145;53.182;6.284;2022-08-25T16:48:33;3.03;;;2.20;;